ADDS METAR Data INFO
IDs: Format: Raw Decoded Include TAF

Data at: 0231 UTC 26 Jul 2017

KPYX 260215Z AUTO 16009KT 10SM CLR 32/17 A2997 RMK AO2 T03170170
KPYX 260155Z AUTO 16009KT 10SM CLR 32/17 A2998 RMK AO2 T03210168
KPYX 260135Z AUTO 18010KT 10SM CLR 33/17 A2999 RMK AO2 T03290165
KPYX 260115Z AUTO 16015G21KT 10SM CLR 34/16 A2999 RMK AO2 T03350164
KPYX 260055Z AUTO 16018G23KT 10SM CLR 34/17 A2998 RMK AO2 T03370166
KPYX 260035Z AUTO 16020G26KT 10SM CLR 34/17 A2998 RMK AO2 T03430168
KPYX 260015Z AUTO 17019G25KT 10SM CLR 35/17 A2998 RMK AO2 T03520165
KPYX 252355Z AUTO 18018G23KT 10SM CLR 37/15 A2997 RMK AO2 T03680154 10382 20350
KPYX 252335Z AUTO 18018G24KT 10SM CLR 37/15 A2996 RMK AO2 T03700154
KPYX 252315Z AUTO 17016G21KT 10SM CLR 37/15 A2997 RMK AO2 T03700152
KPYX 252255Z AUTO 18019G23KT 10SM SCT100 38/15 A2997 RMK AO2 T03790152
KPYX 252235Z AUTO 17015G20KT 10SM SCT100 37/15 A2997 RMK AO2 T03730151
KPYX 252215Z AUTO 18015G23KT 10SM CLR 38/16 A2998 RMK AO2 T03750155
KPYX 252155Z AUTO 17014G22KT 10SM CLR 38/15 A2999 RMK AO2 T03810153
KPYX 252135Z AUTO 18014G20KT 10SM CLR 38/15 A2999 RMK AO2 T03790151
KPYX 252115Z AUTO 18014G20KT 10SM CLR 38/15 A2999 RMK AO2 T03810152
KPYX 252055Z AUTO 20014G18KT 10SM SCT090 38/15 A3000 RMK AO2 T03820153
KPYX 252035Z AUTO 19011G18KT 10SM CLR 38/16 A3000 RMK AO2 T03800156
KPYX 252015Z AUTO 21015G21KT 10SM CLR 38/16 A3001 RMK AO2 T03760158
KPYX 251955Z AUTO 20011G18KT 10SM SCT080 37/16 A3002 RMK AO2 T03720162
KPYX 251935Z AUTO 20012G19KT 10SM CLR 37/17 A3002 RMK AO2 T03720166
KPYX 251915Z AUTO 21013G21KT 10SM SCT075 SCT095 SCT120 37/17 A3003 RMK AO2 T03650169
KPYX 251855Z AUTO 20015G20KT 10SM SCT085 36/17 A3004 RMK AO2 T03610169
KPYX 251835Z AUTO 20010G19KT 10SM CLR 36/17 A3004 RMK AO2 T03570171
KPYX 251815Z AUTO 20011G20KT 10SM CLR 35/17 A3005 RMK AO2 T03530172
KPYX 251755Z AUTO 19013G19KT 10SM CLR 35/18 A3005 RMK AO2 T03500180 10350 20221
KPYX 251735Z AUTO 19012G20KT 10SM CLR 34/18 A3006 RMK AO2 T03420180
KPYX 251715Z AUTO 19015KT 10SM CLR 34/19 A3006 RMK AO2 T03370187
KPYX 251655Z AUTO 20012G20KT 10SM CLR 33/19 A3007 RMK AO2 T03320188
KPYX 251635Z AUTO 20014G17KT 10SM CLR 33/20 A3007 RMK AO2 T03260197
KPYX 251615Z AUTO 19013G19KT 10SM CLR 32/20 A3007 RMK AO2 T03170199
KPYX 251555Z AUTO 19011G18KT 10SM CLR 31/20 A3007 RMK AO2 T03100203
KPYX 251535Z AUTO 20013G16KT 10SM CLR 30/20 A3007 RMK AO2 T03010200
KPYX 251515Z AUTO 20011G18KT 10SM CLR 30/20 A3007 RMK AO2 T02950200
KPYX 251455Z AUTO 20015KT 10SM CLR 29/20 A3008 RMK AO2 T02900200
KPYX 251435Z AUTO 19011KT 10SM CLR 28/21 A3007 RMK AO2 T02800207
KPYX 251415Z AUTO 17012G15KT 10SM CLR 27/21 A3008 RMK AO2 T02680210
KPYX 251355Z AUTO 17010G14KT 10SM CLR 26/21 A3008 RMK AO2 T02570211
KPYX 251335Z AUTO 17012KT 10SM CLR 25/21 A3008 RMK AO2 T02460209
KPYX 251315Z AUTO 15010KT 10SM CLR 24/21 A3008 RMK AO2 T02390207
KPYX 251255Z AUTO 15009KT 10SM CLR 23/21 A3008 RMK AO2 T02330205
KPYX 251235Z AUTO 15008KT 10SM CLR 23/20 A3007 RMK AO2 T02260204
KPYX 251215Z AUTO 15007KT 10SM CLR 22/20 A3007 RMK AO2 T02220202
KPYX 251155Z AUTO 15007KT 10SM CLR 22/20 A3007 RMK AO2 T02210200 10251 20221
KPYX 251135Z AUTO 15007KT 10SM CLR 22/20 A3007 RMK AO2 T02220201
KPYX 251115Z AUTO 15006KT 10SM CLR 22/20 A3007 RMK AO2 T02220200
KPYX 251055Z AUTO 14006KT 10SM CLR 23/20 A3006 RMK AO2 T02250201
KPYX 251035Z AUTO 15006KT 10SM CLR 23/20 A3006 RMK AO2 T02280202
KPYX 251015Z AUTO 15007KT 10SM CLR 23/20 A3006 RMK AO2 T02300200
KPYX 250955Z AUTO 16007KT 10SM CLR 23/20 A3005 RMK AO2 T02310200
KPYX 250935Z AUTO 15007KT 10SM CLR 23/20 A3005 RMK AO2 T02320200
KPYX 250915Z AUTO 15007KT 10SM CLR 23/20 A3006 RMK AO2 T02310199
KPYX 250855Z AUTO 15006KT 10SM CLR 23/20 A3006 RMK AO2 T02310197
KPYX 250835Z AUTO 16006KT 10SM CLR 24/20 A3006 RMK AO2 T02350196
KPYX 250815Z AUTO 17006KT 10SM CLR 24/19 A3006 RMK AO2 T02350193
KPYX 250755Z AUTO 16007KT 10SM CLR 24/19 A3006 RMK AO2 T02360190
KPYX 250735Z AUTO 16008KT 10SM CLR 24/19 A3006 RMK AO2 T02370188
KPYX 250715Z AUTO 16007KT 10SM CLR 24/19 A3006 RMK AO2 T02410187
KPYX 250655Z AUTO 17007KT 10SM CLR 24/19 A3006 RMK AO2 T02430187
KPYX 250635Z AUTO 15005KT 10SM CLR 24/19 A3007 RMK AO2 T02410186
KPYX 250615Z AUTO 15006KT 10SM CLR 24/19 A3007 RMK AO2 T02440185
KPYX 250555Z AUTO 18007KT 10SM CLR 25/19 A3006 RMK AO2 T02500187 10325 20248 403580208
KPYX 250535Z AUTO 18007KT 10SM CLR 25/19 A3007 RMK AO2 T02490186
KPYX 250515Z AUTO 17006KT 10SM CLR 25/19 A3006 RMK AO2 T02520185
KPYX 250455Z AUTO 16007KT 10SM CLR 26/19 A3006 RMK AO2 T02550185
KPYX 250435Z AUTO 17007KT 10SM CLR 26/19 A3006 RMK AO2 T02600185
KPYX 250415Z AUTO 17006KT 10SM CLR 26/19 A3005 RMK AO2 T02610185
KPYX 250355Z AUTO 17006KT 10SM CLR 27/18 A3004 RMK AO2 T02660183
KPYX 250335Z AUTO 17007KT 10SM CLR 27/18 A3004 RMK AO2 T02730183
KPYX 250315Z AUTO 17007KT 10SM CLR 28/18 A3003 RMK AO2 T02800184
KPYX 250255Z AUTO 17008KT 10SM CLR 29/18 A3002 RMK AO2 T02870183
KPYX 250235Z AUTO 18010KT 10SM CLR 29/19 A3001 RMK AO2 T02900185
KPYX 250215Z AUTO 18009KT 10SM CLR 30/18 A3001 RMK AO2 T02980181
KPYX 250155Z AUTO 17010G14KT 10SM CLR 31/18 A3000 RMK AO2 T03060178
KPYX 250135Z AUTO 18012KT 10SM CLR 31/18 A3000 RMK AO2 T03140177
KPYX 250115Z AUTO 17015G21KT 10SM CLR 32/18 A2999 RMK AO2 T03200175
KPYX 250055Z AUTO 17013KT 10SM CLR 32/17 A2998 RMK AO2 T03240169
KPYX 250035Z AUTO 16014G21KT 10SM CLR 32/17 A2997 RMK AO2 T03230167
KPYX 250015Z AUTO 16014G19KT 10SM SCT070 33/17 A2997 RMK AO2 T03250165
KPYX 242355Z AUTO 18014KT 10SM CLR 32/16 A2997 RMK AO2 T03240162 10358 20323
KPYX 242335Z AUTO 18015G21KT 10SM SCT070 SCT100 33/16 A2997 RMK AO2 T03270164
KPYX 242315Z AUTO 18013G18KT 10SM BKN070 OVC090 33/17 A2997 RMK AO2 T03320168
KPYX 242255Z AUTO 18015G28KT 10SM BKN080 BKN090 36/17 A2997 RMK AO2 T03550165
KPYX 242235Z AUTO 16013G22KT 10SM SCT080 35/15 A2997 RMK AO2 T03530151
KPYX 242215Z AUTO 15015G25KT 100V170 10SM SCT080 36/15 A2996 RMK AO2 T03550153
KPYX 242155Z AUTO 13013G17KT 10SM SCT075 34/15 A2997 RMK AO2 T03430150
KPYX 242135Z AUTO 14013G17KT 10SM SCT075 34/15 A2997 RMK AO2 T03440154
KPYX 242115Z AUTO 13012G19KT 10SM SCT075 36/16 A2999 RMK AO2 T03550157
KPYX 242055Z AUTO 15009G20KT 10SM SCT075 SCT085 35/16 A2998 RMK AO2 T03530162
KPYX 242035Z AUTO 14013G20KT 10SM SCT065 BKN085 34/16 A2999 RMK AO2 T03390160
KPYX 242015Z AUTO 11013G18KT 10SM BKN065 BKN085 34/16 A3000 RMK AO2 T03390164
KPYX 241955Z AUTO 13011G15KT 10SM BKN065 BKN085 34/17 A3000 RMK AO2 T03440170
KPYX 241935Z AUTO 12008G11KT 10SM SCT065 34/17 A3001 RMK AO2 T03430166
KPYX 241915Z AUTO 17009G19KT 130V190 10SM SCT065 35/17 A3002 RMK AO2 T03480169
KPYX 241855Z AUTO 14010G17KT 10SM SCT055 35/17 A3002 RMK AO2 T03450167
KPYX 241835Z AUTO 13012KT 10SM SCT055 SCT070 35/18 A3002 RMK AO2 T03450176
KPYX 241815Z AUTO 13012G16KT 10SM SCT055 BKN070 BKN085 34/19 A3003 RMK AO2 T03380185
KPYX 241755Z AUTO 16003KT 10SM SCT055 SCT080 BKN110 33/18 A3003 RMK AO2 T03310178 10334 20208
KPYX 241735Z AUTO 15006KT 10SM CLR 33/18 A3003 RMK AO2 T03300182
KPYX 241715Z AUTO 18010KT 10SM CLR 33/18 A3004 RMK AO2 T03290178
KPYX 241655Z AUTO 13005KT 10SM CLR 32/18 A3004 RMK AO2 T03240180
KPYX 241635Z AUTO 00000KT 10SM CLR 32/18 A3005 RMK AO2 T03210175
KPYX 241615Z AUTO 00000KT 10SM CLR 32/18 A3005 RMK AO2 T03150179
KPYX 241555Z AUTO 23003KT 10SM CLR 31/18 A3005 RMK AO2 T03050181
KPYX 241535Z AUTO 00000KT 10SM CLR 30/19 A3005 RMK AO2 T03010185
KPYX 241515Z AUTO 00000KT 10SM CLR 29/18 A3006 RMK AO2 T02900184
KPYX 241455Z AUTO 00000KT 10SM CLR 28/19 A3005 RMK AO2 T02830191
KPYX 241435Z AUTO 24003KT 10SM CLR 28/20 A3006 RMK AO2 T02770195